AirNav   Air Wisconsin Up To $57,000 Bonus
 
 596 users online  

MO55 SSM Health St Louis University Hospital Heliport
St Louis, Missouri, USA

GOING TO ST LOUIS?


FAA INFORMATION EFFECTIVE 14 JULY 2022

Location

FAA Identifier: MO55
Lat/Long: 38-37-22.3800N 090-14-20.9700W
38-37.373000N 090-14.349500W
38.6228833,-90.2391583
(estimated)
Elevation: 450 ft. / 137 m (estimated)
Variation: 02E (1985)
From city: 3 miles W of ST LOUIS, MO
Time zone: UTC -5 (UTC -6 during Standard Time)
Zip code: 63104

Heliport Operations

Heliport use: Private use, MEDICAL.
Activation date: 11/1988
Control tower: no
ARTCC: KANSAS CITY CENTER
FSS: SAINT LOUIS FLIGHT SERVICE STATION
Attendance: CONTINUOUS
Wind indicator: yes
Segmented circle: no
Lights: ACTVT FLOOD LGTS - 123.050.
Beacon: white-green-yellow (heliport)
24 HRS.

Heliport Communications

WX ASOS at CPS (5 nm SE): PHONE 618-332-0001
WX ASOS at STL (10 nm NW): PHONE 314-890-4790
WX AWOS-3 at ALN (18 nm NE): 128.0 (618-259-7231)
WX ASOS at SUS (19 nm W): 134.8 (314-890-7255)

Nearby radio navigation aids

VOR radial/distance  VOR name  Freq  Var
TOYr241/16.6TROY VORTAC116.0004E
STLr140/18.3ST LOUIS VORTAC117.4001E
FTZr092/34.6FORISTELL VORTAC110.8005E

 
NDB name  Hdg/Dist  Freq  Var  ID
ACORE306/10.535000ECP -.-. .--.
EAVES104/14.822701WFZ ..-. --..
CIVIC MEMORIAL209/18.326301WCVM -.-. ...- --

Heliport Services

Runway Information

Helipad H1

Dimensions: 50 x 50 ft. / 15 x 15 m
Surface: metal
ROOFTOP.
Runway edge lights: FLD
Latitude: 38-37.373000N
Longitude: 090-14.349500W
Elevation: 450.0 ft.
Traffic pattern: leftleft

Heliport Ownership and Management from official FAA records

Ownership: Privately-owned
Owner: SSM HEALTH ST. LOUIS UNIV. HOSPITAL
1015 CORPORATE SQUARE DR.
ST LOUIS, MO 63132
Phone (314) 989-2895
Manager: JOHN O'BRIEN
1015 CORPORATE SQ DR., SUITE 160
ST LOUIS, MO 63132
Phone (314) 989-2895

Additional Remarks

A52-H1 30' BLDG (LGTD) 150' W & 30' SIGN STRUCTURE 35' S OF PAD.
DUE TO MULTIPLE OBSTRUCTIONS WITHIN H1 TLOF, FATO, AND SAFETY AREAS, NO CLEAR INGRESS/EGRESS EXISTS FOR THIS HELIPORT. EXERCISE CAUTION.
FOR CD CTC ST LOUIS APCH AT 314-890-1018.

Instrument Procedures

There are no published instrument procedures at MO55.

Some nearby airports with instrument procedures:

KCPS - St Louis Downtown Airport (5 nm SE)
KSTL - St Louis Lambert International Airport (10 nm NW)
1H0 - Creve Coeur Airport (14 nm NW)
KALN - St Louis Regional Airport (18 nm NE)
KSUS - Spirit of St Louis Airport (19 nm W)
KBLV - Scott Air Force Base/MidAmerica Airport (20 nm E)
 
Loc | Ops | Rwys | IFR | FBO | Links
Com | Nav | Svcs | Stats | Notes
Area around MO55 (SSM Health St Louis University Hospital Heliport)
 
Road maps at: MapQuest Bing Google
 
Aerial photo
No photo
 
Sectional chart

 
Airport distance calculator
Flying to SSM Health St Louis University Hospital Heliport? Find the distance to fly.

From to MO55

Sunrise and sunset
Times for 10-Aug-2022
 Local
(UTC-5)
 Zulu
(UTC)
Morning civil twilight05:4310:43
Sunrise06:1111:11
Sunset20:0101:01
Evening civil twilight20:3001:30

Current date and time
Zulu (UTC)  10-Aug-2022 09:01:13
Local (UTC-5)  10-Aug-2022 04:01:13
 
METAR
KCPS 
5nm SE 
100853Z AUTO 00000KT 6SM BR CLR 19/19 A3010 RMK AO2 SLP188 T01890189 56004 TSNO
KSTL 
10nm NW 
100851Z 35003KT 10SM FEW200 21/19 A3011 RMK AO2 SLP185 T02110194 56007
KALN 
18nm NE 
100835Z AUTO 00000KT 4SM BR CLR 18/18 A3011 RMK AO2 T01810179
KSUS 
19nm W 
100854Z AUTO 00000KT 3/4SM R08R/2400VP6000FT BR VV002 19/19 A3010 RMK AO2 VIS 1/2V5 SLP184 T01890189 58004 $
KBLV 
20nm E 
100755Z 36004KT 10SM FEW200 20/19 A3009 RMK SLP190 T01990192 CHINO RWY14R $
TAF
KCPS 
5nm SE 
100826Z 1008/1106 00000KT 2SM BR SCT002 TEMPO 1008/1011 1/2SM FG BKN002 FM101300 05007KT P6SM SCT035 FM110000 VRB03KT P6SM SKC
KSTL 
10nm NW 
100520Z 1006/1112 VRB04KT P6SM FEW030 FM101500 03006KT P6SM SCT035 FM110100 VRB03KT P6SM SKC
KSUS 
19nm W 
100827Z 1008/1106 00000KT 3SM BR SCT002 TEMPO 1008/1012 1/2SM FG BKN002 FM101300 05007KT P6SM SCT035 FM110000 VRB03KT P6SM SKC
KBLV 
20nm E 
100800Z 1008/1114 03006KT 9999 SCT200 QNH3010INS BECMG 1020/1021 03009KT 9999 SKC QNH3008INS TX28/1020Z TN17/1008Z
NOTAMs
Click for the latest NOTAMs
NOTAMs are issued by the DoD/FAA and will open in a separate window not controlled by AirNav.

 

 
 

Would you like to see your business listed on this page?

 If your business provides an interesting product or service to pilots, flight crews, aircraft, or users of the SSM Health St Louis University Hospital Heliport, you should consider listing it here.  To start the listing process, click on the button below
 
Add a business
 

Other Pages about SSM Health St Louis University Hospital Heliport

Update a link
 
Copyright © AirNav, LLC. All rights reserved. Privacy Policy  Contact